sensor_id;sensor_type;location;lat;lon;timestamp;P1;durP1;ratioP1;P2;durP2;ratioP2
18772;SDS011;9515;50.810;4.418;2023-02-23T00:00:27;63.47;;;39.60;;
18772;SDS011;9515;50.810;4.418;2023-02-23T00:02:54;59.90;;;39.57;;
18772;SDS011;9515;50.810;4.418;2023-02-23T00:05:23;68.07;;;40.87;;
18772;SDS011;9515;50.810;4.418;2023-02-23T00:07:49;62.27;;;39.40;;
18772;SDS011;9515;50.810;4.418;2023-02-23T00:10:16;64.87;;;40.53;;
18772;SDS011;9515;50.810;4.418;2023-02-23T00:12:43;64.40;;;40.77;;
18772;SDS011;9515;50.810;4.418;2023-02-23T00:15:09;62.77;;;40.27;;
18772;SDS011;9515;50.810;4.418;2023-02-23T00:17:37;59.97;;;40.13;;
18772;SDS011;9515;50.810;4.418;2023-02-23T00:20:05;64.07;;;40.40;;
18772;SDS011;9515;50.810;4.418;2023-02-23T00:22:39;62.70;;;41.10;;
18772;SDS011;9515;50.810;4.418;2023-02-23T00:25:06;61.47;;;39.77;;
18772;SDS011;9515;50.810;4.418;2023-02-23T00:27:32;60.93;;;39.20;;
18772;SDS011;9515;50.810;4.418;2023-02-23T00:30:00;61.47;;;38.97;;
18772;SDS011;9515;50.810;4.418;2023-02-23T00:32:25;61.47;;;39.27;;
18772;SDS011;9515;50.810;4.418;2023-02-23T00:34:51;58.03;;;37.03;;
18772;SDS011;9515;50.810;4.418;2023-02-23T00:37:17;55.50;;;36.80;;
18772;SDS011;9515;50.810;4.418;2023-02-23T00:39:45;58.30;;;37.97;;
18772;SDS011;9515;50.810;4.418;2023-02-23T00:42:11;61.13;;;38.67;;
18772;SDS011;9515;50.810;4.418;2023-02-23T00:44:37;57.20;;;37.97;;
18772;SDS011;9515;50.810;4.418;2023-02-23T00:47:04;54.30;;;35.70;;
18772;SDS011;9515;50.810;4.418;2023-02-23T00:49:30;52.30;;;34.87;;
18772;SDS011;9515;50.810;4.418;2023-02-23T00:51:56;50.27;;;34.27;;
18772;SDS011;9515;50.810;4.418;2023-02-23T00:54:22;50.30;;;33.77;;
18772;SDS011;9515;50.810;4.418;2023-02-23T00:56:48;51.57;;;34.27;;
18772;SDS011;9515;50.810;4.418;2023-02-23T00:59:14;49.20;;;33.70;;
18772;SDS011;9515;50.810;4.418;2023-02-23T01:01:40;48.43;;;33.80;;
18772;SDS011;9515;50.810;4.418;2023-02-23T01:04:07;49.83;;;34.10;;
18772;SDS011;9515;50.810;4.418;2023-02-23T01:06:33;48.83;;;33.07;;
18772;SDS011;9515;50.810;4.418;2023-02-23T01:09:05;51.57;;;34.67;;
18772;SDS011;9515;50.810;4.418;2023-02-23T01:11:32;50.13;;;35.03;;
18772;SDS011;9515;50.810;4.418;2023-02-23T01:13:59;49.13;;;33.07;;
18772;SDS011;9515;50.810;4.418;2023-02-23T01:16:27;53.00;;;34.43;;
18772;SDS011;9515;50.810;4.418;2023-02-23T01:18:56;51.47;;;34.67;;
18772;SDS011;9515;50.810;4.418;2023-02-23T01:21:27;52.07;;;35.57;;
18772;SDS011;9515;50.810;4.418;2023-02-23T01:23:55;52.07;;;35.37;;
18772;SDS011;9515;50.810;4.418;2023-02-23T01:26:23;52.67;;;36.10;;
18772;SDS011;9515;50.810;4.418;2023-02-23T01:28:57;50.27;;;34.57;;
18772;SDS011;9515;50.810;4.418;2023-02-23T01:31:25;54.40;;;36.27;;
18772;SDS011;9515;50.810;4.418;2023-02-23T01:33:53;56.47;;;37.03;;
18772;SDS011;9515;50.810;4.418;2023-02-23T01:36:20;59.33;;;36.23;;
18772;SDS011;9515;50.810;4.418;2023-02-23T01:38:47;57.30;;;36.00;;
18772;SDS011;9515;50.810;4.418;2023-02-23T01:41:13;59.03;;;37.90;;
18772;SDS011;9515;50.810;4.418;2023-02-23T01:46:25;59.27;;;37.07;;
18772;SDS011;9515;50.810;4.418;2023-02-23T01:48:51;58.20;;;36.90;;
18772;SDS011;9515;50.810;4.418;2023-02-23T01:51:20;55.17;;;36.33;;
18772;SDS011;9515;50.810;4.418;2023-02-23T01:53:53;55.17;;;36.70;;
18772;SDS011;9515;50.810;4.418;2023-02-23T01:56:31;54.23;;;34.77;;
18772;SDS011;9515;50.810;4.418;2023-02-23T01:59:02;56.60;;;36.33;;
18772;SDS011;9515;50.810;4.418;2023-02-23T02:01:30;57.43;;;36.70;;
18772;SDS011;9515;50.810;4.418;2023-02-23T02:03:57;52.37;;;34.33;;
18772;SDS011;9515;50.810;4.418;2023-02-23T02:06:29;53.87;;;34.30;;
18772;SDS011;9515;50.810;4.418;2023-02-23T02:09:01;58.87;;;34.60;;
18772;SDS011;9515;50.810;4.418;2023-02-23T02:11:32;62.10;;;37.00;;
18772;SDS011;9515;50.810;4.418;2023-02-23T02:14:06;57.93;;;35.03;;
18772;SDS011;9515;50.810;4.418;2023-02-23T02:41:23;84.53;;;40.50;;
18772;SDS011;9515;50.810;4.418;2023-02-23T02:44:18;87.03;;;41.87;;
18772;SDS011;9515;50.810;4.418;2023-02-23T02:46:54;84.17;;;41.20;;
18772;SDS011;9515;50.810;4.418;2023-02-23T02:49:28;93.47;;;42.30;;
18772;SDS011;9515;50.810;4.418;2023-02-23T02:54:45;96.90;;;41.83;;
18772;SDS011;9515;50.810;4.418;2023-02-23T02:57:17;97.63;;;43.00;;
18772;SDS011;9515;50.810;4.418;2023-02-23T02:59:47;98.70;;;44.30;;
18772;SDS011;9515;50.810;4.418;2023-02-23T03:02:33;96.67;;;43.33;;
18772;SDS011;9515;50.810;4.418;2023-02-23T03:05:35;103.70;;;44.47;;
18772;SDS011;9515;50.810;4.418;2023-02-23T03:11:38;101.93;;;43.57;;
18772;SDS011;9515;50.810;4.418;2023-02-23T03:14:32;104.57;;;44.07;;
18772;SDS011;9515;50.810;4.418;2023-02-23T03:17:45;95.37;;;40.63;;
18772;SDS011;9515;50.810;4.418;2023-02-23T03:26:01;96.13;;;41.73;;
18772;SDS011;9515;50.810;4.418;2023-02-23T03:29:02;105.23;;;42.17;;
18772;SDS011;9515;50.810;4.418;2023-02-23T03:34:59;101.70;;;41.50;;
18772;SDS011;9515;50.810;4.418;2023-02-23T03:37:55;108.53;;;43.73;;
18772;SDS011;9515;50.810;4.418;2023-02-23T03:40:46;108.20;;;43.30;;
18772;SDS011;9515;50.810;4.418;2023-02-23T03:43:34;110.77;;;44.67;;
18772;SDS011;9515;50.810;4.418;2023-02-23T03:46:24;102.23;;;44.13;;
18772;SDS011;9515;50.810;4.418;2023-02-23T03:49:12;103.97;;;43.90;;
18772;SDS011;9515;50.810;4.418;2023-02-23T03:52:00;103.90;;;42.97;;
18772;SDS011;9515;50.810;4.418;2023-02-23T03:54:54;103.47;;;44.33;;
18772;SDS011;9515;50.810;4.418;2023-02-23T03:57:42;99.53;;;43.57;;
18772;SDS011;9515;50.810;4.418;2023-02-23T04:00:31;106.33;;;43.57;;
18772;SDS011;9515;50.810;4.418;2023-02-23T04:03:19;100.77;;;43.57;;
18772;SDS011;9515;50.810;4.418;2023-02-23T04:06:05;106.23;;;43.67;;
18772;SDS011;9515;50.810;4.418;2023-02-23T04:08:51;100.93;;;43.40;;
18772;SDS011;9515;50.810;4.418;2023-02-23T04:14:39;114.47;;;43.30;;
18772;SDS011;9515;50.810;4.418;2023-02-23T04:17:11;129.63;;;44.97;;
18772;SDS011;9515;50.810;4.418;2023-02-23T04:19:47;121.60;;;45.60;;
18772;SDS011;9515;50.810;4.418;2023-02-23T04:22:17;117.87;;;43.60;;
18772;SDS011;9515;50.810;4.418;2023-02-23T04:24:42;125.87;;;43.57;;
18772;SDS011;9515;50.810;4.418;2023-02-23T04:27:10;150.67;;;43.53;;
18772;SDS011;9515;50.810;4.418;2023-02-23T04:29:36;126.87;;;43.30;;
18772;SDS011;9515;50.810;4.418;2023-02-23T04:32:02;119.47;;;41.67;;
18772;SDS011;9515;50.810;4.418;2023-02-23T04:34:27;125.53;;;42.70;;
18772;SDS011;9515;50.810;4.418;2023-02-23T04:36:53;122.77;;;42.90;;
18772;SDS011;9515;50.810;4.418;2023-02-23T04:39:19;128.00;;;42.70;;
18772;SDS011;9515;50.810;4.418;2023-02-23T04:41:44;118.87;;;42.90;;
18772;SDS011;9515;50.810;4.418;2023-02-23T04:44:12;122.70;;;44.27;;
18772;SDS011;9515;50.810;4.418;2023-02-23T04:46:38;121.07;;;43.00;;
18772;SDS011;9515;50.810;4.418;2023-02-23T04:49:04;138.60;;;45.73;;
18772;SDS011;9515;50.810;4.418;2023-02-23T04:51:29;112.13;;;41.83;;
18772;SDS011;9515;50.810;4.418;2023-02-23T04:53:57;117.67;;;42.90;;
18772;SDS011;9515;50.810;4.418;2023-02-23T04:56:23;109.50;;;42.63;;
18772;SDS011;9515;50.810;4.418;2023-02-23T04:58:48;118.87;;;44.17;;
18772;SDS011;9515;50.810;4.418;2023-02-23T05:01:14;112.17;;;42.43;;
18772;SDS011;9515;50.810;4.418;2023-02-23T05:03:40;108.47;;;41.50;;
18772;SDS011;9515;50.810;4.418;2023-02-23T05:06:05;118.90;;;42.13;;
18772;SDS011;9515;50.810;4.418;2023-02-23T05:08:31;108.10;;;40.33;;
18772;SDS011;9515;50.810;4.418;2023-02-23T05:10:57;102.40;;;40.30;;
18772;SDS011;9515;50.810;4.418;2023-02-23T05:13:22;96.07;;;40.20;;
18772;SDS011;9515;50.810;4.418;2023-02-23T05:15:48;104.73;;;39.93;;
18772;SDS011;9515;50.810;4.418;2023-02-23T05:18:13;99.60;;;39.90;;
18772;SDS011;9515;50.810;4.418;2023-02-23T05:20:42;99.73;;;39.87;;
18772;SDS011;9515;50.810;4.418;2023-02-23T05:23:11;98.90;;;37.97;;
18772;SDS011;9515;50.810;4.418;2023-02-23T05:25:38;94.90;;;39.30;;
18772;SDS011;9515;50.810;4.418;2023-02-23T05:28:04;92.10;;;39.93;;
18772;SDS011;9515;50.810;4.418;2023-02-23T05:30:30;89.43;;;37.93;;
18772;SDS011;9515;50.810;4.418;2023-02-23T05:32:56;83.37;;;36.83;;
18772;SDS011;9515;50.810;4.418;2023-02-23T05:35:21;90.90;;;39.10;;
18772;SDS011;9515;50.810;4.418;2023-02-23T05:37:47;96.77;;;42.50;;
18772;SDS011;9515;50.810;4.418;2023-02-23T05:40:13;99.90;;;43.17;;
18772;SDS011;9515;50.810;4.418;2023-02-23T05:42:38;104.50;;;44.23;;
18772;SDS011;9515;50.810;4.418;2023-02-23T05:45:04;116.70;;;46.70;;
18772;SDS011;9515;50.810;4.418;2023-02-23T05:47:31;106.77;;;45.27;;
18772;SDS011;9515;50.810;4.418;2023-02-23T05:50:02;103.20;;;44.33;;
18772;SDS011;9515;50.810;4.418;2023-02-23T05:52:30;112.87;;;46.93;;
18772;SDS011;9515;50.810;4.418;2023-02-23T05:54:55;106.20;;;46.90;;
18772;SDS011;9515;50.810;4.418;2023-02-23T05:57:21;114.83;;;48.70;;
18772;SDS011;9515;50.810;4.418;2023-02-23T05:59:47;116.67;;;48.07;;
18772;SDS011;9515;50.810;4.418;2023-02-23T06:02:12;109.80;;;47.07;;
18772;SDS011;9515;50.810;4.418;2023-02-23T06:04:38;122.27;;;48.10;;
18772;SDS011;9515;50.810;4.418;2023-02-23T06:07:04;115.40;;;49.53;;
18772;SDS011;9515;50.810;4.418;2023-02-23T06:09:29;111.37;;;46.87;;
18772;SDS011;9515;50.810;4.418;2023-02-23T06:11:55;108.43;;;47.13;;
18772;SDS011;9515;50.810;4.418;2023-02-23T06:14:23;118.03;;;47.77;;
18772;SDS011;9515;50.810;4.418;2023-02-23T06:16:49;116.00;;;49.70;;
18772;SDS011;9515;50.810;4.418;2023-02-23T06:19:15;110.23;;;47.23;;
18772;SDS011;9515;50.810;4.418;2023-02-23T06:21:40;118.57;;;47.33;;
18772;SDS011;9515;50.810;4.418;2023-02-23T06:24:06;122.80;;;49.70;;
18772;SDS011;9515;50.810;4.418;2023-02-23T06:26:32;122.77;;;51.17;;
18772;SDS011;9515;50.810;4.418;2023-02-23T06:28:59;134.47;;;52.70;;
18772;SDS011;9515;50.810;4.418;2023-02-23T06:31:25;125.90;;;49.23;;
18772;SDS011;9515;50.810;4.418;2023-02-23T06:33:50;128.57;;;50.77;;
18772;SDS011;9515;50.810;4.418;2023-02-23T06:36:16;127.57;;;50.87;;
18772;SDS011;9515;50.810;4.418;2023-02-23T06:38:42;124.83;;;49.77;;
18772;SDS011;9515;50.810;4.418;2023-02-23T06:41:09;114.20;;;47.97;;
18772;SDS011;9515;50.810;4.418;2023-02-23T06:43:35;117.57;;;48.07;;
18772;SDS011;9515;50.810;4.418;2023-02-23T06:46:02;112.00;;;47.53;;
18772;SDS011;9515;50.810;4.418;2023-02-23T06:48:28;116.20;;;48.80;;
18772;SDS011;9515;50.810;4.418;2023-02-23T06:50:56;125.47;;;54.37;;
18772;SDS011;9515;50.810;4.418;2023-02-23T06:53:22;119.50;;;49.33;;
18772;SDS011;9515;50.810;4.418;2023-02-23T06:55:49;102.77;;;46.33;;
18772;SDS011;9515;50.810;4.418;2023-02-23T06:58:14;109.33;;;46.03;;
18772;SDS011;9515;50.810;4.418;2023-02-23T07:00:41;105.13;;;45.40;;
18772;SDS011;9515;50.810;4.418;2023-02-23T07:03:07;100.70;;;44.77;;
18772;SDS011;9515;50.810;4.418;2023-02-23T07:05:35;102.77;;;46.50;;
18772;SDS011;9515;50.810;4.418;2023-02-23T07:08:01;98.47;;;46.43;;
18772;SDS011;9515;50.810;4.418;2023-02-23T07:10:26;101.87;;;44.07;;
18772;SDS011;9515;50.810;4.418;2023-02-23T07:12:52;103.27;;;45.23;;
18772;SDS011;9515;50.810;4.418;2023-02-23T07:15:18;98.20;;;45.13;;
18772;SDS011;9515;50.810;4.418;2023-02-23T07:17:45;85.17;;;43.40;;
18772;SDS011;9515;50.810;4.418;2023-02-23T07:20:13;107.80;;;45.13;;
18772;SDS011;9515;50.810;4.418;2023-02-23T07:22:40;98.80;;;44.83;;
18772;SDS011;9515;50.810;4.418;2023-02-23T07:25:06;92.57;;;42.27;;
18772;SDS011;9515;50.810;4.418;2023-02-23T07:27:32;83.17;;;40.87;;
18772;SDS011;9515;50.810;4.418;2023-02-23T07:29:58;86.53;;;41.43;;
18772;SDS011;9515;50.810;4.418;2023-02-23T07:32:24;87.57;;;42.00;;
18772;SDS011;9515;50.810;4.418;2023-02-23T07:34:49;89.77;;;42.03;;
18772;SDS011;9515;50.810;4.418;2023-02-23T07:37:15;88.63;;;41.17;;
18772;SDS011;9515;50.810;4.418;2023-02-23T07:39:41;87.00;;;40.67;;
18772;SDS011;9515;50.810;4.418;2023-02-23T07:42:06;98.37;;;42.10;;
18772;SDS011;9515;50.810;4.418;2023-02-23T07:44:32;89.50;;;39.73;;
18772;SDS011;9515;50.810;4.418;2023-02-23T07:46:58;97.47;;;41.80;;
18772;SDS011;9515;50.810;4.418;2023-02-23T07:49:23;97.17;;;40.67;;
18772;SDS011;9515;50.810;4.418;2023-02-23T07:51:49;95.20;;;42.53;;
18772;SDS011;9515;50.810;4.418;2023-02-23T07:54:15;90.63;;;42.37;;
18772;SDS011;9515;50.810;4.418;2023-02-23T07:56:40;96.00;;;40.27;;
18772;SDS011;9515;50.810;4.418;2023-02-23T07:59:06;88.90;;;41.43;;
18772;SDS011;9515;50.810;4.418;2023-02-23T08:01:32;93.87;;;40.90;;
18772;SDS011;9515;50.810;4.418;2023-02-23T08:03:57;95.40;;;41.37;;
18772;SDS011;9515;50.810;4.418;2023-02-23T08:06:23;89.90;;;41.67;;
18772;SDS011;9515;50.810;4.418;2023-02-23T08:08:49;85.00;;;40.27;;
18772;SDS011;9515;50.810;4.418;2023-02-23T08:11:15;78.00;;;40.37;;
18772;SDS011;9515;50.810;4.418;2023-02-23T08:13:40;86.17;;;38.87;;
18772;SDS011;9515;50.810;4.418;2023-02-23T08:16:06;88.50;;;40.40;;
18772;SDS011;9515;50.810;4.418;2023-02-23T08:18:33;92.87;;;39.93;;
18772;SDS011;9515;50.810;4.418;2023-02-23T08:21:00;93.47;;;40.87;;
18772;SDS011;9515;50.810;4.418;2023-02-23T08:23:28;92.83;;;41.37;;
18772;SDS011;9515;50.810;4.418;2023-02-23T08:25:58;84.10;;;40.27;;
18772;SDS011;9515;50.810;4.418;2023-02-23T08:28:25;84.17;;;39.13;;
18772;SDS011;9515;50.810;4.418;2023-02-23T08:30:51;94.50;;;41.13;;
18772;SDS011;9515;50.810;4.418;2023-02-23T08:33:17;92.00;;;41.87;;
18772;SDS011;9515;50.810;4.418;2023-02-23T08:35:43;99.93;;;46.27;;
18772;SDS011;9515;50.810;4.418;2023-02-23T08:38:09;85.93;;;41.30;;
18772;SDS011;9515;50.810;4.418;2023-02-23T08:40:34;94.37;;;43.90;;
18772;SDS011;9515;50.810;4.418;2023-02-23T08:43:00;89.33;;;43.70;;
18772;SDS011;9515;50.810;4.418;2023-02-23T08:45:26;92.83;;;45.10;;
18772;SDS011;9515;50.810;4.418;2023-02-23T08:47:53;92.70;;;44.57;;
18772;SDS011;9515;50.810;4.418;2023-02-23T08:50:20;97.33;;;44.90;;
18772;SDS011;9515;50.810;4.418;2023-02-23T08:52:46;105.07;;;46.57;;
18772;SDS011;9515;50.810;4.418;2023-02-23T08:55:12;101.33;;;46.40;;
18772;SDS011;9515;50.810;4.418;2023-02-23T08:57:39;94.40;;;45.40;;
18772;SDS011;9515;50.810;4.418;2023-02-23T09:00:05;97.53;;;44.90;;
18772;SDS011;9515;50.810;4.418;2023-02-23T09:02:37;99.73;;;46.47;;
18772;SDS011;9515;50.810;4.418;2023-02-23T09:05:07;99.43;;;47.17;;
18772;SDS011;9515;50.810;4.418;2023-02-23T09:07:34;97.90;;;45.83;;
18772;SDS011;9515;50.810;4.418;2023-02-23T09:10:01;94.57;;;45.27;;
18772;SDS011;9515;50.810;4.418;2023-02-23T09:12:27;89.73;;;44.83;;
18772;SDS011;9515;50.810;4.418;2023-02-23T09:14:53;93.83;;;44.60;;
18772;SDS011;9515;50.810;4.418;2023-02-23T09:17:19;86.17;;;44.97;;
18772;SDS011;9515;50.810;4.418;2023-02-23T09:19:47;86.23;;;44.87;;
18772;SDS011;9515;50.810;4.418;2023-02-23T09:22:13;87.10;;;43.87;;
18772;SDS011;9515;50.810;4.418;2023-02-23T09:24:39;86.90;;;44.03;;
18772;SDS011;9515;50.810;4.418;2023-02-23T09:27:04;89.43;;;45.10;;
18772;SDS011;9515;50.810;4.418;2023-02-23T09:29:31;90.67;;;44.83;;
18772;SDS011;9515;50.810;4.418;2023-02-23T09:31:57;93.27;;;46.70;;
18772;SDS011;9515;50.810;4.418;2023-02-23T09:34:23;96.97;;;48.07;;
18772;SDS011;9515;50.810;4.418;2023-02-23T09:36:48;97.87;;;50.53;;
18772;SDS011;9515;50.810;4.418;2023-02-23T09:39:16;97.90;;;49.67;;
18772;SDS011;9515;50.810;4.418;2023-02-23T09:41:48;104.00;;;50.77;;
18772;SDS011;9515;50.810;4.418;2023-02-23T09:49:37;92.73;;;47.20;;
18772;SDS011;9515;50.810;4.418;2023-02-23T09:52:08;89.83;;;47.10;;
18772;SDS011;9515;50.810;4.418;2023-02-23T09:54:40;91.77;;;45.77;;
18772;SDS011;9515;50.810;4.418;2023-02-23T09:57:09;80.17;;;43.47;;
18772;SDS011;9515;50.810;4.418;2023-02-23T09:59:40;82.30;;;43.27;;
18772;SDS011;9515;50.810;4.418;2023-02-23T10:04:47;86.27;;;44.97;;
18772;SDS011;9515;50.810;4.418;2023-02-23T10:12:34;92.73;;;47.87;;
18772;SDS011;9515;50.810;4.418;2023-02-23T10:20:58;100.03;;;50.97;;
18772;SDS011;9515;50.810;4.418;2023-02-23T10:23:28;94.80;;;49.97;;
18772;SDS011;9515;50.810;4.418;2023-02-23T10:26:03;97.73;;;50.50;;
18772;SDS011;9515;50.810;4.418;2023-02-23T10:28:34;99.47;;;51.23;;
18772;SDS011;9515;50.810;4.418;2023-02-23T10:31:01;91.27;;;49.60;;
18772;SDS011;9515;50.810;4.418;2023-02-23T10:33:40;92.57;;;49.53;;
18772;SDS011;9515;50.810;4.418;2023-02-23T10:36:16;98.63;;;52.17;;
18772;SDS011;9515;50.810;4.418;2023-02-23T10:38:44;92.30;;;49.00;;
18772;SDS011;9515;50.810;4.418;2023-02-23T10:41:10;86.17;;;48.00;;
18772;SDS011;9515;50.810;4.418;2023-02-23T10:43:36;86.07;;;46.87;;
18772;SDS011;9515;50.810;4.418;2023-02-23T10:46:02;93.83;;;47.97;;
18772;SDS011;9515;50.810;4.418;2023-02-23T10:48:33;89.83;;;48.57;;
18772;SDS011;9515;50.810;4.418;2023-02-23T10:51:12;78.10;;;43.57;;
18772;SDS011;9515;50.810;4.418;2023-02-23T10:53:43;74.50;;;42.27;;
18772;SDS011;9515;50.810;4.418;2023-02-23T10:56:10;70.80;;;41.23;;
18772;SDS011;9515;50.810;4.418;2023-02-23T11:01:37;64.63;;;39.10;;
18772;SDS011;9515;50.810;4.418;2023-02-23T11:04:12;68.30;;;39.07;;
18772;SDS011;9515;50.810;4.418;2023-02-23T11:06:41;77.37;;;37.10;;
18772;SDS011;9515;50.810;4.418;2023-02-23T11:12:03;57.80;;;35.37;;
18772;SDS011;9515;50.810;4.418;2023-02-23T11:15:00;59.67;;;35.17;;
18772;SDS011;9515;50.810;4.418;2023-02-23T11:17:44;62.07;;;35.77;;
18772;SDS011;9515;50.810;4.418;2023-02-23T11:22:39;67.37;;;35.17;;
18772;SDS011;9515;50.810;4.418;2023-02-23T11:25:14;69.10;;;36.97;;
18772;SDS011;9515;50.810;4.418;2023-02-23T11:27:47;64.53;;;35.97;;
18772;SDS011;9515;50.810;4.418;2023-02-23T11:30:15;63.63;;;34.83;;
18772;SDS011;9515;50.810;4.418;2023-02-23T11:32:48;61.03;;;34.10;;
18772;SDS011;9515;50.810;4.418;2023-02-23T11:37:42;58.83;;;34.90;;
18772;SDS011;9515;50.810;4.418;2023-02-23T11:40:21;66.20;;;35.70;;
18772;SDS011;9515;50.810;4.418;2023-02-23T11:42:50;64.27;;;35.00;;
18772;SDS011;9515;50.810;4.418;2023-02-23T11:45:19;69.33;;;36.20;;
18772;SDS011;9515;50.810;4.418;2023-02-23T11:47:50;64.60;;;35.77;;
18772;SDS011;9515;50.810;4.418;2023-02-23T11:55:24;69.13;;;37.23;;
18772;SDS011;9515;50.810;4.418;2023-02-23T11:57:50;73.33;;;38.20;;
18772;SDS011;9515;50.810;4.418;2023-02-23T12:00:24;76.90;;;39.77;;
18772;SDS011;9515;50.810;4.418;2023-02-23T12:02:53;80.87;;;40.37;;
18772;SDS011;9515;50.810;4.418;2023-02-23T12:05:26;86.73;;;42.27;;
18772;SDS011;9515;50.810;4.418;2023-02-23T12:08:13;81.20;;;40.70;;
18772;SDS011;9515;50.810;4.418;2023-02-23T12:10:46;81.13;;;40.67;;
18772;SDS011;9515;50.810;4.418;2023-02-23T12:15:59;55.57;;;32.03;;
18772;SDS011;9515;50.810;4.418;2023-02-23T12:21:14;67.20;;;33.63;;
18772;SDS011;9515;50.810;4.418;2023-02-23T12:23:48;58.60;;;32.00;;
18772;SDS011;9515;50.810;4.418;2023-02-23T12:26:19;62.90;;;32.87;;
18772;SDS011;9515;50.810;4.418;2023-02-23T12:28:48;62.63;;;35.00;;
18772;SDS011;9515;50.810;4.418;2023-02-23T12:34:38;75.73;;;40.53;;
18772;SDS011;9515;50.810;4.418;2023-02-23T12:37:37;75.53;;;41.97;;
18772;SDS011;9515;50.810;4.418;2023-02-23T12:50:31;87.17;;;47.30;;
18772;SDS011;9515;50.810;4.418;2023-02-23T13:06:32;79.40;;;44.83;;
18772;SDS011;9515;50.810;4.418;2023-02-23T13:17:25;79.27;;;44.57;;
18772;SDS011;9515;50.810;4.418;2023-02-23T13:19:58;83.67;;;46.33;;
18772;SDS011;9515;50.810;4.418;2023-02-23T13:22:45;75.87;;;43.13;;
18772;SDS011;9515;50.810;4.418;2023-02-23T13:28:48;72.47;;;43.47;;
18772;SDS011;9515;50.810;4.418;2023-02-23T13:31:43;74.07;;;44.20;;
18772;SDS011;9515;50.810;4.418;2023-02-23T13:34:10;71.47;;;43.53;;
18772;SDS011;9515;50.810;4.418;2023-02-23T13:36:44;75.13;;;44.37;;
18772;SDS011;9515;50.810;4.418;2023-02-23T13:44:44;75.53;;;45.03;;
18772;SDS011;9515;50.810;4.418;2023-02-23T13:50:17;78.97;;;45.67;;
18772;SDS011;9515;50.810;4.418;2023-02-23T13:52:46;83.63;;;45.63;;
18772;SDS011;9515;50.810;4.418;2023-02-23T13:57:53;63.13;;;37.67;;
18772;SDS011;9515;50.810;4.418;2023-02-23T14:00:26;63.83;;;36.87;;
18772;SDS011;9515;50.810;4.418;2023-02-23T14:02:53;68.00;;;38.73;;
18772;SDS011;9515;50.810;4.418;2023-02-23T14:07:56;63.87;;;34.70;;
18772;SDS011;9515;50.810;4.418;2023-02-23T14:10:37;61.93;;;34.27;;
18772;SDS011;9515;50.810;4.418;2023-02-23T14:26:41;46.00;;;26.27;;
18772;SDS011;9515;50.810;4.418;2023-02-23T14:31:57;48.93;;;26.27;;
18772;SDS011;9515;50.810;4.418;2023-02-23T14:34:41;49.03;;;26.23;;
18772;SDS011;9515;50.810;4.418;2023-02-23T14:37:40;45.43;;;26.13;;
18772;SDS011;9515;50.810;4.418;2023-02-23T14:40:13;48.27;;;27.43;;
18772;SDS011;9515;50.810;4.418;2023-02-23T14:42:56;43.00;;;25.00;;
18772;SDS011;9515;50.810;4.418;2023-02-23T14:45:26;50.03;;;25.97;;
18772;SDS011;9515;50.810;4.418;2023-02-23T14:48:10;47.13;;;25.53;;
18772;SDS011;9515;50.810;4.418;2023-02-23T14:50:37;41.97;;;25.20;;
18772;SDS011;9515;50.810;4.418;2023-02-23T14:53:05;43.87;;;24.43;;
18772;SDS011;9515;50.810;4.418;2023-02-23T14:55:39;47.17;;;24.67;;
18772;SDS011;9515;50.810;4.418;2023-02-23T14:58:21;48.73;;;25.50;;
18772;SDS011;9515;50.810;4.418;2023-02-23T15:00:52;42.97;;;23.93;;
18772;SDS011;9515;50.810;4.418;2023-02-23T15:03:18;46.83;;;24.37;;
18772;SDS011;9515;50.810;4.418;2023-02-23T15:05:47;41.10;;;22.63;;
18772;SDS011;9515;50.810;4.418;2023-02-23T15:08:19;46.30;;;23.83;;
18772;SDS011;9515;50.810;4.418;2023-02-23T15:10:48;41.93;;;23.53;;
18772;SDS011;9515;50.810;4.418;2023-02-23T15:15:51;42.40;;;23.10;;
18772;SDS011;9515;50.810;4.418;2023-02-23T15:18:22;43.20;;;23.33;;
18772;SDS011;9515;50.810;4.418;2023-02-23T15:20:56;41.23;;;22.47;;
18772;SDS011;9515;50.810;4.418;2023-02-23T15:23:23;42.37;;;22.37;;
18772;SDS011;9515;50.810;4.418;2023-02-23T15:25:48;45.57;;;23.60;;
18772;SDS011;9515;50.810;4.418;2023-02-23T15:28:21;47.80;;;23.67;;
18772;SDS011;9515;50.810;4.418;2023-02-23T15:30:51;39.10;;;22.37;;
18772;SDS011;9515;50.810;4.418;2023-02-23T15:33:18;40.03;;;21.80;;
18772;SDS011;9515;50.810;4.418;2023-02-23T15:38:49;42.90;;;21.23;;
18772;SDS011;9515;50.810;4.418;2023-02-23T15:43:43;44.80;;;21.10;;
18772;SDS011;9515;50.810;4.418;2023-02-23T15:46:11;37.63;;;21.60;;
18772;SDS011;9515;50.810;4.418;2023-02-23T15:48:48;39.40;;;20.40;;
18772;SDS011;9515;50.810;4.418;2023-02-23T15:51:19;38.47;;;20.40;;
18772;SDS011;9515;50.810;4.418;2023-02-23T15:53:52;40.83;;;20.23;;
18772;SDS011;9515;50.810;4.418;2023-02-23T15:56:21;39.20;;;20.80;;
18772;SDS011;9515;50.810;4.418;2023-02-23T15:58:52;30.83;;;18.33;;
18772;SDS011;9515;50.810;4.418;2023-02-23T16:01:27;40.73;;;20.13;;
18772;SDS011;9515;50.810;4.418;2023-02-23T16:04:05;46.30;;;21.13;;
18772;SDS011;9515;50.810;4.418;2023-02-23T16:06:37;36.60;;;19.60;;
18772;SDS011;9515;50.810;4.418;2023-02-23T16:11:47;32.23;;;17.70;;
18772;SDS011;9515;50.810;4.418;2023-02-23T16:14:14;32.53;;;17.10;;
18772;SDS011;9515;50.810;4.418;2023-02-23T16:16:41;33.13;;;15.77;;
18772;SDS011;9515;50.810;4.418;2023-02-23T16:19:10;29.10;;;16.17;;
18772;SDS011;9515;50.810;4.418;2023-02-23T16:21:38;30.17;;;17.23;;
18772;SDS011;9515;50.810;4.418;2023-02-23T16:24:05;34.07;;;16.90;;
18772;SDS011;9515;50.810;4.418;2023-02-23T16:26:36;28.73;;;16.67;;
18772;SDS011;9515;50.810;4.418;2023-02-23T16:29:11;39.00;;;18.37;;
18772;SDS011;9515;50.810;4.418;2023-02-23T16:31:44;34.03;;;17.20;;
18772;SDS011;9515;50.810;4.418;2023-02-23T16:34:27;30.57;;;18.33;;
18772;SDS011;9515;50.810;4.418;2023-02-23T16:36:57;31.73;;;19.07;;
18772;SDS011;9515;50.810;4.418;2023-02-23T16:39:28;38.17;;;20.30;;
18772;SDS011;9515;50.810;4.418;2023-02-23T16:41:58;32.43;;;19.40;;
18772;SDS011;9515;50.810;4.418;2023-02-23T16:44:25;34.53;;;20.03;;
18772;SDS011;9515;50.810;4.418;2023-02-23T16:49:18;31.47;;;20.30;;
18772;SDS011;9515;50.810;4.418;2023-02-23T16:51:44;33.57;;;20.10;;
18772;SDS011;9515;50.810;4.418;2023-02-23T16:54:10;30.30;;;19.63;;
18772;SDS011;9515;50.810;4.418;2023-02-23T16:56:37;30.03;;;19.97;;
18772;SDS011;9515;50.810;4.418;2023-02-23T16:59:04;31.07;;;20.90;;
18772;SDS011;9515;50.810;4.418;2023-02-23T17:01:33;30.23;;;19.67;;
18772;SDS011;9515;50.810;4.418;2023-02-23T17:04:00;28.93;;;19.77;;
18772;SDS011;9515;50.810;4.418;2023-02-23T17:06:26;29.37;;;19.40;;
18772;SDS011;9515;50.810;4.418;2023-02-23T17:08:51;36.73;;;19.57;;
18772;SDS011;9515;50.810;4.418;2023-02-23T17:11:17;23.57;;;17.57;;
18772;SDS011;9515;50.810;4.418;2023-02-23T17:13:43;31.73;;;19.30;;
18772;SDS011;9515;50.810;4.418;2023-02-23T17:16:10;25.17;;;17.60;;
18772;SDS011;9515;50.810;4.418;2023-02-23T17:18:37;25.00;;;17.87;;
18772;SDS011;9515;50.810;4.418;2023-02-23T17:21:04;27.37;;;17.90;;
18772;SDS011;9515;50.810;4.418;2023-02-23T17:23:33;26.63;;;18.27;;
18772;SDS011;9515;50.810;4.418;2023-02-23T17:26:10;27.23;;;18.23;;
18772;SDS011;9515;50.810;4.418;2023-02-23T17:28:36;24.13;;;17.97;;
18772;SDS011;9515;50.810;4.418;2023-02-23T17:31:02;30.20;;;18.93;;
18772;SDS011;9515;50.810;4.418;2023-02-23T17:33:28;29.13;;;18.40;;
18772;SDS011;9515;50.810;4.418;2023-02-23T17:36:03;27.77;;;18.23;;